Time;durP1;ratioP1;P1;durP2;ratioP2;P2;SDS_P1;SDS_P2;PMS_P1;PMS_P2;Temp;Humidity;BMP_temperature;BMP_pressure;BME280_temperature;BME280_humidity;BME280_pressure;Samples;Min_cycle;Max_cycle;Signal;HPM_P1;HPM_P2
2024/04/22 00:02:15;;;;;;;0.30;0.20;;;;;;;-147.86;100.00;-5742.25;105874;1256;72484;-51
2024/04/22 00:04:42;;;;;;;0.10;0.10;;;;;;;-147.86;100.00;-7053.25;105825;1253;61753;-48
2024/04/22 00:07:11;;;;;;;0.30;0.20;;;;;;;-147.86;100.00;-8606.86;105809;1254;61259;-49
2024/04/22 00:09:38;;;;;;;0.30;0.30;;;;;;;-147.86;100.00;-10298.12;105821;1255;74531;-48
2024/04/22 00:12:05;;;;;;;0.20;0.10;;;;;;;-147.86;100.00;-11916.81;105839;1256;64640;-47
2024/04/22 00:14:32;;;;;;;0.20;0.20;;;;;;;-147.86;100.00;-13556.05;105858;1256;72558;-50
2024/04/22 00:16:59;;;;;;;0.20;0.20;;;;;;;-147.86;100.00;-14879.83;105856;1254;61785;-49
2024/04/22 00:19:26;;;;;;;0.20;0.20;;;;;;;-147.86;100.00;-16002.22;105857;1253;61288;-48
2024/04/22 00:21:53;;;;;;;0.20;0.10;;;;;;;-147.86;100.00;-16984.34;105809;1254;74614;-47
2024/04/22 00:24:19;;;;;;;0.20;0.20;;;;;;;-147.86;100.00;-17600.01;105846;1256;64543;-49
2024/04/22 00:26:46;;;;;;;2.40;0.20;;;;;;;-147.86;100.00;-17609.17;105825;1256;72518;-48
2024/04/22 00:29:13;;;;;;;0.20;0.20;;;;;;;-147.86;100.00;-17609.17;105885;1254;61226;-48
2024/04/22 00:31:40;;;;;;;0.20;0.20;;;;;;;-147.86;100.00;-17609.17;105971;1254;61256;-50
2024/04/22 00:34:08;;;;;;;0.40;0.20;;;;;;;-147.86;100.00;-17609.17;105884;1254;73170;-49
2024/04/22 00:36:34;;;;;;;2.30;0.30;;;;;;;-147.86;100.00;-17609.17;105871;1256;64716;-50
2024/04/22 00:39:01;;;;;;;2.80;0.20;;;;;;;-147.86;100.00;-17609.17;105923;1254;72650;-50
2024/04/22 00:41:31;;;;;;;0.20;0.20;;;;;;;-147.86;100.00;-17609.17;105884;1254;61934;-49
2024/04/22 00:43:57;;;;;;;1.20;0.20;;;;;;;-147.86;100.00;-17609.17;106010;1253;61369;-50
2024/04/22 00:46:24;;;;;;;3.50;0.50;;;;;;;-147.86;100.00;-17609.17;105954;1254;74594;-49
2024/04/22 00:48:51;;;;;;;0.20;0.20;;;;;;;-147.86;100.00;-17609.17;105688;1253;64567;-50
2024/04/22 00:51:18;;;;;;;0.20;0.20;;;;;;;-147.86;100.00;-17609.17;105913;1254;72529;-47
2024/04/22 00:53:45;;;;;;;0.30;0.20;;;;;;;-147.86;100.00;-17609.17;105903;1256;61953;-47
2024/04/22 00:56:12;;;;;;;0.10;0.10;;;;;;;-147.86;100.00;-17609.17;105875;1254;61237;-48
2024/04/22 00:58:38;;;;;;;0.10;0.10;;;;;;;-147.86;100.00;-17609.17;105862;1254;74564;-49
2024/04/22 01:01:06;;;;;;;0.10;0.10;;;;;;;-147.86;100.00;-17609.17;105679;1254;64640;-51
2024/04/22 01:03:33;;;;;;;0.30;0.00;;;;;;;-147.86;100.00;-17609.17;105721;1259;72731;-50
2024/04/22 01:06:00;;;;;;;0.20;0.20;;;;;;;-147.86;100.00;-17609.17;105857;1254;61953;-47
2024/04/22 01:08:27;;;;;;;1.60;0.20;;;;;;;-147.86;100.00;-17609.17;105860;1254;61254;-47
2024/04/22 01:10:54;;;;;;;0.20;0.20;;;;;;;-147.86;100.00;-17609.17;105791;1257;73717;-49
2024/04/22 01:13:20;;;;;;;0.20;0.20;;;;;;;-147.86;100.00;-17609.17;105821;1254;63708;-46
2024/04/22 01:15:47;;;;;;;0.50;0.30;;;;;;;-147.86;100.00;-17609.17;105907;1254;72935;-48
2024/04/22 01:18:18;;;;;;;0.90;0.30;;;;;;;-147.86;100.00;-17609.17;105862;1254;61791;-48
2024/04/22 01:20:45;;;;;;;0.20;0.20;;;;;;;-147.86;100.00;-17609.17;105892;1257;61257;-51
2024/04/22 01:23:12;;;;;;;1.30;0.20;;;;;;;-147.86;100.00;-17609.17;105935;1254;74965;-49
2024/04/22 01:25:42;;;;;;;0.20;0.10;;;;;;;-147.86;100.00;-17609.17;105854;1254;64706;-49
2024/04/22 01:28:09;;;;;;;0.20;0.20;;;;;;;-147.86;100.00;-17609.17;105938;1254;72421;-49
2024/04/22 01:30:36;;;;;;;0.20;0.20;;;;;;;-147.86;100.00;-17609.17;105840;1254;61848;-50
2024/04/22 01:33:04;;;;;;;0.20;0.20;;;;;;;-147.86;100.00;-17609.17;105870;1253;61365;-49
2024/04/22 01:35:31;;;;;;;1.40;0.30;;;;;;;-147.86;100.00;-17609.17;105628;1254;363887;-51
2024/04/22 01:40:16;;;;;;;0.30;0.30;;;;;;;-147.86;100.00;-17609.17;102566;1290;602601;-49
2024/04/22 01:42:44;;;;;;;0.30;0.30;;;;;;;-147.86;100.00;-17609.17;105172;1264;60534;-46
2024/04/22 01:45:11;;;;;;;0.30;0.30;;;;;;;-147.86;100.00;-17609.17;105262;1261;60099;-46
2024/04/22 01:47:38;;;;;;;0.20;0.20;;;;;;;-147.86;100.00;-17609.17;105238;1260;72988;-46
2024/04/22 01:50:06;;;;;;;2.30;0.40;;;;;;;-147.86;100.00;-17609.17;105248;1263;65415;-49
2024/04/22 01:52:33;;;;;;;0.30;0.30;;;;;;;-147.86;100.00;-17609.17;105084;1265;251727;-52
2024/04/22 01:55:00;;;;;;;0.20;0.20;;;;;;;-147.86;100.00;-17609.17;105595;1262;61922;-47
2024/04/22 01:57:27;;;;;;;0.30;0.20;;;;;;;-147.86;100.00;-17609.17;105533;1260;60137;-46
2024/04/22 01:59:54;;;;;;;0.30;0.30;;;;;;;-147.86;100.00;-17609.17;105499;1263;73027;-46
2024/04/22 02:02:21;;;;;;;1.20;0.40;;;;;;;-147.86;100.00;-17609.17;105602;1263;65345;-48
2024/04/22 02:04:48;;;;;;;0.10;0.10;;;;;;;-147.86;100.00;-17609.17;105542;1263;72535;-48
2024/04/22 02:07:15;;;;;;;0.40;0.40;;;;;;;-147.86;100.00;-17609.17;105552;1260;61910;-50
2024/04/22 02:09:42;;;;;;;0.30;0.30;;;;;;;-147.86;100.00;-17609.17;105498;1259;60736;-48
2024/04/22 02:12:08;;;;;;;0.90;0.30;;;;;;;-147.86;100.00;-17609.17;105535;1261;72779;-46
2024/04/22 02:14:35;;;;;;;0.40;0.40;;;;;;;-147.86;100.00;-17609.17;105561;1263;64620;-48
2024/04/22 02:17:03;;;;;;;0.30;0.30;;;;;;;-147.86;100.00;-17609.17;105547;1261;71354;-49
2024/04/22 02:19:30;;;;;;;0.80;0.30;;;;;;;-147.86;100.00;-17609.17;105533;1263;61872;-47
2024/04/22 02:21:57;;;;;;;0.90;0.20;;;;;;;-147.86;100.00;-17609.17;105323;1260;60453;-47
2024/04/22 02:24:23;;;;;;;0.30;0.30;;;;;;;-147.86;100.00;-17609.17;105241;1260;73773;-50
2024/04/22 02:26:50;;;;;;;1.10;0.20;;;;;;;-147.86;100.00;-17609.17;105295;1266;63566;-49
2024/04/22 02:29:17;;;;;;;0.20;0.20;;;;;;;-147.86;100.00;-17609.17;105317;1261;72452;-50
2024/04/22 02:31:44;;;;;;;0.10;0.10;;;;;;;-147.86;100.00;-17609.17;105278;1261;61776;-48
2024/04/22 02:34:10;;;;;;;1.60;0.30;;;;;;;-147.86;100.00;-17609.17;105317;1260;60415;-49
2024/04/22 02:36:37;;;;;;;0.70;0.20;;;;;;;-147.86;100.00;-17609.17;105257;1260;73739;-46
2024/04/22 02:39:04;;;;;;;0.10;0.10;;;;;;;-147.86;100.00;-17609.17;105336;1264;64631;-48
2024/04/22 02:41:31;;;;;;;0.80;0.10;;;;;;;-147.86;100.00;-17609.17;105329;1261;72680;-49
2024/04/22 02:43:58;;;;;;;2.10;0.20;;;;;;;-147.86;100.00;-17609.17;105272;1265;60557;-47
2024/04/22 02:46:25;;;;;;;0.10;0.10;;;;;;;-147.86;100.00;-17609.17;105255;1260;60546;-47
2024/04/22 02:48:52;;;;;;;0.10;0.10;;;;;;;-147.86;100.00;-17609.17;105640;1257;73612;-49
2024/04/22 02:51:19;;;;;;;0.20;0.10;;;;;;;-147.86;100.00;-17609.17;105596;1261;64810;-49
2024/04/22 02:53:46;;;;;;;0.10;0.10;;;;;;;-147.86;100.00;-17609.17;105568;1257;72611;-48
2024/04/22 02:56:13;;;;;;;0.30;0.20;;;;;;;-147.86;100.00;-17609.17;105659;1263;60347;-48
2024/04/22 02:58:40;;;;;;;0.30;0.20;;;;;;;-147.86;100.00;-17609.17;105637;1257;60300;-47
2024/04/22 03:01:10;;;;;;;5.00;0.10;;;;;;;-147.86;100.00;-17609.17;105621;1258;73875;-47
2024/04/22 03:03:37;;;;;;;0.10;0.10;;;;;;;-147.86;100.00;-17609.17;105605;1263;64618;-48
2024/04/22 03:06:05;;;;;;;0.50;0.10;;;;;;;-147.86;100.00;-17609.17;105591;1263;72591;-48
2024/04/22 03:08:31;;;;;;;1.40;0.10;;;;;;;-147.86;100.00;-17609.17;105586;1262;60338;-48
2024/04/22 03:10:58;;;;;;;0.50;0.10;;;;;;;-147.86;100.00;-17609.17;105641;1258;60581;-46
2024/04/22 03:13:25;;;;;;;7.30;0.90;;;;;;;-147.86;100.00;-17609.17;105610;1263;73845;-50
2024/04/22 03:15:52;;;;;;;0.10;0.10;;;;;;;-147.86;100.00;-17609.17;105631;1262;64538;-47
2024/04/22 03:18:19;;;;;;;4.80;0.10;;;;;;;-147.86;100.00;-17609.17;105611;1263;72558;-48
2024/04/22 03:20:47;;;;;;;1.10;0.10;;;;;;;-147.86;100.00;-17609.17;105574;1262;60356;-49
2024/04/22 03:23:14;;;;;;;3.30;0.10;;;;;;;-147.86;100.00;-17609.17;105624;1257;60569;-48
2024/04/22 03:25:41;;;;;;;0.90;0.10;;;;;;;-147.86;100.00;-17609.17;105600;1257;73798;-50
2024/04/22 03:28:08;;;;;;;0.50;0.10;;;;;;;-147.86;100.00;-17609.17;105629;1260;64634;-49
2024/04/22 03:30:35;;;;;;;0.10;0.10;;;;;;;-147.86;100.00;-17609.17;105649;1257;72563;-46
2024/04/22 03:33:02;;;;;;;1.80;0.20;;;;;;;-147.86;100.00;-17609.17;105689;1259;60414;-46
2024/04/22 03:35:33;;;;;;;0.10;0.10;;;;;;;-147.86;100.00;-17609.17;105647;1256;60543;-47
2024/04/22 03:37:59;;;;;;;0.80;0.10;;;;;;;-147.86;100.00;-17609.17;105630;1257;73755;-47
2024/04/22 03:40:27;;;;;;;0.10;0.10;;;;;;;-147.86;100.00;-17609.17;105627;1257;63557;-48
2024/04/22 03:42:54;;;;;;;3.70;0.20;;;;;;;-147.86;100.00;-17609.17;105629;1256;72579;-47
2024/04/22 03:45:21;;;;;;;0.30;0.30;;;;;;;-147.86;100.00;-17609.17;105661;1259;60328;-46
2024/04/22 03:50:35;;;;;;;0.20;0.20;;;;;;;-147.86;100.00;-17609.17;105640;1259;73845;-47
2024/04/22 03:53:02;;;;;;;2.60;0.40;;;;;;;-147.86;100.00;-17609.17;105639;1257;65566;-47
2024/04/22 03:55:29;;;;;;;0.10;0.10;;;;;;;-147.86;100.00;-17609.17;105604;1257;72323;-48
2024/04/22 03:57:56;;;;;;;0.00;0.00;;;;;;;-147.86;100.00;-17609.17;105640;1259;60423;-46
2024/04/22 04:00:23;;;;;;;0.10;0.10;;;;;;;-147.86;100.00;-17609.17;105644;1257;60450;-48
2024/04/22 04:02:50;;;;;;;0.20;0.20;;;;;;;-147.86;100.00;-17609.17;105629;1257;73805;-46
2024/04/22 04:05:17;;;;;;;0.60;0.30;;;;;;;-147.86;100.00;-17609.17;105658;1257;64543;-47
2024/04/22 04:07:50;;;;;;;0.10;0.10;;;;;;;-147.86;100.00;-17609.17;105644;1257;72935;-47
2024/04/22 04:10:18;;;;;;;0.50;0.20;;;;;;;-147.86;100.00;-17609.17;105606;1259;60392;-48
2024/04/22 04:12:44;;;;;;;0.80;0.10;;;;;;;-147.86;100.00;-17609.17;105633;1258;60524;-48
2024/04/22 04:15:12;;;;;;;0.30;0.30;;;;;;;-147.86;100.00;-17609.17;105592;1259;73810;-47
2024/04/22 04:17:38;;;;;;;0.20;0.20;;;;;;;-147.86;100.00;-17609.17;105587;1259;64208;-46
2024/04/22 04:20:06;;;;;;;0.20;0.10;;;;;;;-147.86;100.00;-17609.17;105578;1257;72565;-47
2024/04/22 04:22:33;;;;;;;2.60;0.40;;;;;;;-147.86;100.00;-17609.17;105615;1260;60440;-45
2024/04/22 04:25:00;;;;;;;2.80;0.30;;;;;;;-147.86;100.00;-17609.17;105637;1257;60524;-47
2024/04/22 04:27:27;;;;;;;0.30;0.30;;;;;;;-147.86;100.00;-17609.17;105598;1260;73792;-47
2024/04/22 04:29:54;;;;;;;0.20;0.20;;;;;;;-147.86;100.00;-17609.17;105574;1257;65371;-48
2024/04/22 04:32:21;;;;;;;1.70;0.20;;;;;;;-147.86;100.00;-17609.17;105600;1257;72607;-48
2024/04/22 04:34:51;;;;;;;0.20;0.20;;;;;;;-147.86;100.00;-17609.17;105631;1260;60393;-46
2024/04/22 04:37:18;;;;;;;0.70;0.40;;;;;;;-147.86;100.00;-17609.17;105629;1256;60360;-47
2024/04/22 04:39:45;;;;;;;0.50;0.30;;;;;;;-147.86;100.00;-17609.17;105628;1260;73756;-46
2024/04/22 04:42:12;;;;;;;0.30;0.30;;;;;;;-147.86;100.00;-17609.17;105603;1258;65234;-47
2024/04/22 04:44:38;;;;;;;0.70;0.30;;;;;;;-147.86;100.00;-17609.17;105662;1257;72516;-47
2024/04/22 04:47:05;;;;;;;0.90;0.30;;;;;;;-147.86;100.00;-17609.17;105623;1259;60435;-48
2024/04/22 04:49:32;;;;;;;0.40;0.40;;;;;;;-147.86;100.00;-17609.17;105640;1257;60414;-49
2024/04/22 04:51:59;;;;;;;0.30;0.30;;;;;;;-147.86;100.00;-17609.17;105652;1260;73709;-48
2024/04/22 04:54:25;;;;;;;0.40;0.20;;;;;;;-147.86;100.00;-17609.17;105687;1259;65307;-45
2024/04/22 04:56:52;;;;;;;0.30;0.30;;;;;;;-147.86;100.00;-17609.17;105610;1257;72450;-48
2024/04/22 04:59:19;;;;;;;0.40;0.30;;;;;;;-147.86;100.00;-17609.17;105626;1260;60424;-47
2024/04/22 05:01:46;;;;;;;3.20;0.30;;;;;;;-147.86;100.00;-17609.17;105634;1257;61493;-46
2024/04/22 05:04:14;;;;;;;0.30;0.30;;;;;;;-147.86;100.00;-17609.17;105623;1260;74220;-48
2024/04/22 05:06:41;;;;;;;4.60;0.40;;;;;;;-147.86;100.00;-17609.17;105623;1260;65992;-47
2024/04/22 05:09:07;;;;;;;2.70;0.40;;;;;;;-147.86;100.00;-17609.17;105625;1257;72214;-46
2024/04/22 05:11:34;;;;;;;2.00;0.40;;;;;;;-147.86;100.00;-17609.17;105640;1257;62033;-47
2024/04/22 05:14:02;;;;;;;0.30;0.30;;;;;;;-147.86;100.00;-17609.17;105673;1257;61114;-46
2024/04/22 05:16:29;;;;;;;2.20;0.20;;;;;;;-147.86;100.00;-17609.17;105650;1260;73692;-47
2024/04/22 05:18:56;;;;;;;1.00;0.20;;;;;;;-147.86;100.00;-17609.17;105614;1259;64956;-46
2024/04/22 05:21:23;;;;;;;0.30;0.30;;;;;;;-147.86;100.00;-17609.17;105574;1257;72463;-47
2024/04/22 05:23:50;;;;;;;1.90;0.20;;;;;;;-147.86;100.00;-17609.17;105594;1258;61930;-48
2024/04/22 05:26:17;;;;;;;0.60;0.40;;;;;;;-147.86;100.00;-17609.17;105567;1257;60415;-46
2024/04/22 05:28:45;;;;;;;0.30;0.30;;;;;;;-147.86;100.00;-17609.17;105616;1259;73805;-46
2024/04/22 05:31:13;;;;;;;0.40;0.40;;;;;;;-147.86;100.00;-17609.17;105654;1260;65442;-46
2024/04/22 05:36:25;;;;;;;2.90;0.30;;;;;;;-147.86;100.00;-17609.17;105580;1260;60771;-46
2024/04/22 05:38:53;;;;;;;0.30;0.30;;;;;;;-147.86;100.00;-17609.17;105673;1258;60495;-47
2024/04/22 05:41:20;;;;;;;0.50;0.30;;;;;;;-147.86;100.00;-17609.17;105639;1258;73458;-45
2024/04/22 05:43:47;;;;;;;1.80;0.40;;;;;;;-147.86;100.00;-17609.17;105699;1258;64400;-47
2024/04/22 05:46:15;;;;;;;0.40;0.40;;;;;;;-147.86;100.00;-17609.17;105591;1260;72507;-47
2024/04/22 05:48:42;;;;;;;0.40;0.40;;;;;;;-147.86;100.00;-17609.17;105577;1260;61173;-46
2024/04/22 05:51:08;;;;;;;0.90;0.50;;;;;;;-147.86;100.00;-17609.17;105583;1260;61579;-46
2024/04/22 05:53:35;;;;;;;2.20;0.30;;;;;;;-147.86;100.00;-17609.17;105633;1260;74868;-47
2024/04/22 05:56:03;;;;;;;0.30;0.30;;;;;;;-147.86;100.00;-17609.17;105583;1260;64491;-46
2024/04/22 05:58:30;;;;;;;0.50;0.40;;;;;;;-147.86;100.00;-17609.17;105635;1260;71816;-47
2024/04/22 06:00:58;;;;;;;3.40;0.60;;;;;;;-147.86;100.00;-17609.17;105633;1257;61132;-45
2024/04/22 06:03:25;;;;;;;2.50;0.30;;;;;;;-147.86;100.00;-17609.17;105667;1260;61279;-46
2024/04/22 06:05:52;;;;;;;0.90;0.40;;;;;;;-147.86;100.00;-17609.17;105614;1260;75997;-48
2024/04/22 06:08:19;;;;;;;0.80;0.40;;;;;;;-147.86;100.00;-17609.17;105651;1257;65730;-46
2024/04/22 06:10:46;;;;;;;0.60;0.60;;;;;;;-147.86;100.00;-17609.17;105634;1260;74061;-45
2024/04/22 06:13:14;;;;;;;1.30;0.50;;;;;;;-147.86;100.00;-17609.17;105622;1260;61221;-46
2024/04/22 06:15:41;;;;;;;3.40;1.20;;;;;;;-147.86;100.00;-17609.17;105626;1257;61271;-46
2024/04/22 06:18:08;;;;;;;7.90;0.90;;;;;;;-147.86;100.00;-17609.17;105618;1260;74955;-46
2024/04/22 06:20:36;;;;;;;8.30;1.40;;;;;;;-147.86;100.00;-17609.17;105599;1260;66694;-47
2024/04/22 06:23:03;;;;;;;16.50;2.00;;;;;;;-147.86;100.00;-17609.17;105669;1260;73004;-45
2024/04/22 06:25:30;;;;;;;2.70;0.50;;;;;;;-147.86;100.00;-17609.17;105626;1260;61159;-47
2024/04/22 06:27:57;;;;;;;13.30;1.60;;;;;;;-147.86;100.00;-17609.17;105608;1256;61362;-46
2024/04/22 06:30:24;;;;;;;20.90;2.10;;;;;;;-147.86;100.00;-17609.17;105586;1259;73772;-46
2024/04/22 06:32:52;;;;;;;15.80;1.90;;;;;;;-147.86;100.00;-17609.17;105615;1260;67040;-45
2024/04/22 06:35:19;;;;;;;6.30;1.80;;;;;;;-147.86;100.00;-17609.17;105624;1260;73078;-47
2024/04/22 06:37:46;;;;;;;18.80;1.90;;;;;;;-147.86;100.00;-17609.17;105568;1257;61257;-46
2024/04/22 06:40:13;;;;;;;11.70;1.60;;;;;;;-147.86;100.00;-17609.17;105609;1256;61298;-47
2024/04/22 06:42:40;;;;;;;4.90;1.00;;;;;;;-147.86;100.00;-17609.17;105675;1261;74948;-46
2024/04/22 06:45:07;;;;;;;19.40;2.00;;;;;;;-147.86;100.00;-17609.17;105675;1260;66074;-45
2024/04/22 06:47:35;;;;;;;21.80;1.80;;;;;;;-147.86;100.00;-17609.17;105647;1260;71684;-47
2024/04/22 06:50:02;;;;;;;4.70;0.90;;;;;;;-147.86;100.00;-17609.17;105600;1257;62348;-46
2024/04/22 06:52:30;;;;;;;21.20;1.90;;;;;;;-147.86;100.00;-17609.17;105652;1258;61675;-45
2024/04/22 06:54:57;;;;;;;24.40;2.80;;;;;;;-147.86;100.00;-17609.17;105631;1260;74255;-46
2024/04/22 06:57:24;;;;;;;7.40;1.60;;;;;;;-147.86;100.00;-17609.17;105668;1260;65706;-47
2024/04/22 06:59:51;;;;;;;18.80;1.70;;;;;;;-147.86;100.00;-17609.17;105653;1257;72685;-45
2024/04/22 07:02:18;;;;;;;12.80;1.80;;;;;;;-147.86;100.00;-17609.17;105604;1258;61231;-46
2024/04/22 07:04:49;;;;;;;14.50;2.10;;;;;;;-147.86;100.00;-17609.17;105638;1257;61145;-45
2024/04/22 07:07:16;;;;;;;6.90;1.50;;;;;;;-147.86;100.00;-17609.17;105674;1258;75274;-47
2024/04/22 07:09:43;;;;;;;13.60;1.80;;;;;;;-147.86;100.00;-17609.17;105599;1258;65487;-47
2024/04/22 07:12:10;;;;;;;5.10;1.00;;;;;;;-147.86;100.00;-17609.17;105616;1260;72913;-45
2024/04/22 07:14:37;;;;;;;2.00;1.20;;;;;;;-147.86;100.00;-17609.17;105622;1260;61101;-46
2024/04/22 07:17:05;;;;;;;8.30;1.50;;;;;;;-147.86;100.00;-17609.17;105622;1259;61279;-46
2024/04/22 07:19:32;;;;;;;4.80;1.00;;;;;;;-147.86;100.00;-17609.17;105630;1257;75185;-46
2024/04/22 07:22:00;;;;;;;5.40;1.00;;;;;;;-147.86;100.00;-17609.17;105615;1259;66038;-46
2024/04/22 07:24:27;;;;;;;2.80;0.90;;;;;;;-147.86;100.00;-17609.17;105657;1257;72935;-45
2024/04/22 07:26:55;;;;;;;0.50;0.50;;;;;;;-147.86;100.00;-17609.17;105616;1261;61228;-47
2024/04/22 07:29:23;;;;;;;1.20;0.70;;;;;;;-147.86;100.00;-17609.17;105631;1257;61218;-45
2024/04/22 07:31:51;;;;;;;3.60;0.60;;;;;;;-147.86;100.00;-17609.17;105625;1260;74861;-47
2024/04/22 07:34:18;;;;;;;1.90;0.60;;;;;;;-147.86;100.00;-17609.17;105618;1261;65963;-46
2024/04/22 07:36:47;;;;;;;0.50;0.50;;;;;;;-147.86;100.00;-17609.17;105598;1260;72840;-46
2024/04/22 07:39:14;;;;;;;1.20;0.50;;;;;;;-147.86;100.00;-17609.17;105667;1260;61343;-46
2024/04/22 07:41:41;;;;;;;2.50;0.50;;;;;;;-147.86;100.00;-17609.17;105640;1262;61406;-46
2024/04/22 07:44:08;;;;;;;3.80;0.50;;;;;;;-147.86;100.00;-17609.17;105598;1259;76054;-47
2024/04/22 07:46:35;;;;;;;0.60;0.50;;;;;;;-147.86;100.00;-17609.17;105592;1260;65192;-49
2024/04/22 07:49:02;;;;;;;13.20;1.30;;;;;;;-147.86;100.00;-17509.90;105659;1260;72870;-45
2024/04/22 07:51:29;;;;;;;17.30;1.30;;;;;;;-147.86;100.00;-15633.49;105586;1260;61193;-49
2024/04/22 07:53:58;;;;;;;26.10;2.80;;;;;;;-147.86;100.00;-14151.97;105562;1260;61202;-47
2024/04/22 07:56:25;;;;;;;18.80;1.90;;;;;;;-147.86;100.00;-10792.43;105649;1260;75082;-45
2024/04/22 07:58:53;;;;;;;5.30;0.60;;;;;;;-147.86;100.00;-14003.76;105633;1260;65745;-44
2024/04/22 08:01:20;;;;;;;27.50;2.00;;;;;;;-147.86;100.00;-14398.62;105630;1260;73322;-46
2024/04/22 08:03:48;;;;;;;5.50;0.80;;;;;;;-147.86;100.00;-8913.37;105640;1260;61222;-46
2024/04/22 08:06:22;;;;;;;1.80;0.50;;;;;;;-147.86;99.65;6303.71;105670;1263;61256;-46
2024/04/22 08:08:49;;;;;;;2.60;0.50;;;;;;;-147.86;100.00;13356.18;105596;1260;73687;-47
2024/04/22 08:11:16;;;;;;;1.00;0.60;;;;;;;-147.86;100.00;4562.26;105662;1256;65836;-46
2024/04/22 08:13:43;;;;;;;5.30;0.70;;;;;;;-147.86;100.00;9130.26;105672;1260;73022;-46
2024/04/22 08:16:10;;;;;;;0.80;0.60;;;;;;;-147.86;98.31;24485.38;105634;1262;61644;-46
2024/04/22 08:18:37;;;;;;;16.30;2.60;;;;;;;-147.86;98.77;31555.34;105647;1259;61274;-45
2024/04/22 08:21:07;;;;;;;35.90;3.00;;;;;;;-147.86;97.68;35537.88;105625;1258;74816;-47
2024/04/22 08:23:36;;;;;;;3.00;0.40;;;;;;;-147.86;97.93;38541.79;105727;1260;65781;-46
2024/04/22 08:26:03;;;;;;;2.90;0.50;;;;;;;-147.86;98.77;37111.79;105631;1258;72794;-45
2024/04/22 08:28:30;;;;;;;0.30;0.30;;;;;;;-147.86;97.93;37832.63;105641;1262;61243;-46
2024/04/22 08:31:06;;;;;;;2.50;0.40;;;;;;;-147.86;97.15;40484.52;105670;1261;61222;-46
2024/04/22 08:33:33;;;;;;;1.30;0.60;;;;;;;-147.86;95.88;41823.46;105616;1260;74164;-46
2024/04/22 08:36:00;;;;;;;0.60;0.40;;;;;;;-147.86;94.99;43372.63;105641;1260;64525;-45
2024/04/22 08:38:27;;;;;;;0.50;0.50;;;;;;;-147.86;95.98;43428.63;105620;1257;72698;-47
2024/04/22 08:40:56;;;;;;;2.60;0.50;;;;;;;-147.86;96.56;43604.46;105611;1260;61225;-45
2024/04/22 08:43:24;;;;;;;0.30;0.30;;;;;;;-147.86;96.70;43199.95;105659;1263;61643;-45
2024/04/22 08:45:51;;;;;;;2.50;0.60;;;;;;;-147.86;95.49;43945.97;105607;1260;73936;-46
2024/04/22 08:48:18;;;;;;;0.50;0.50;;;;;;;-147.86;97.67;43367.18;105575;1262;64897;-45
2024/04/22 08:50:48;;;;;;;0.60;0.60;;;;;;;-147.86;96.06;43155.71;105628;1261;73058;-45
2024/04/22 08:53:14;;;;;;;2.90;0.40;;;;;;;-147.86;94.45;43995.32;105635;1260;61209;-45
2024/04/22 08:55:42;;;;;;;2.20;0.50;;;;;;;-147.86;92.79;44691.74;105617;1264;61324;-47
2024/04/22 08:58:09;;;;;;;0.90;0.60;;;;;;;-147.86;92.77;44942.45;105620;1259;74837;-46
2024/04/22 09:00:36;;;;;;;1.20;0.50;;;;;;;-147.86;90.37;45658.26;105633;1260;65709;-45
2024/04/22 09:03:03;;;;;;;0.40;0.40;;;;;;;-147.86;89.67;46784.88;105587;1258;72983;-45
2024/04/22 09:05:31;;;;;;;0.40;0.40;;;;;;;-147.86;89.61;47131.76;105637;1260;61245;-46
2024/04/22 09:08:02;;;;;;;2.50;0.60;;;;;;;-147.86;90.91;47323.83;105668;1257;61247;-46
2024/04/22 09:10:33;;;;;;;0.50;0.50;;;;;;;-147.86;90.54;47421.04;105648;1258;74728;-46
2024/04/22 09:13:20;;;;;;;0.80;0.50;;;;;;;-147.86;90.83;47527.66;105607;1257;66858;-47
2024/04/22 09:15:57;;;;;;;1.90;0.30;;;;;;;-147.86;84.80;47606.07;105658;1260;73807;-46
2024/04/22 09:18:24;;;;;;;1.40;0.80;;;;;;;-147.86;86.29;47866.38;105650;1257;61183;-47
2024/04/22 09:21:15;;;;;;;0.70;0.40;;;;;;;-147.86;88.28;47971.05;105656;1260;61337;-47
2024/04/22 09:23:42;;;;;;;0.50;0.40;;;;;;;-147.86;88.61;48013.00;105552;1262;75092;-48
2024/04/22 09:26:09;;;;;;;0.70;0.50;;;;;;;-147.86;91.80;48069.46;105633;1260;66794;-47
2024/04/22 09:28:37;;;;;;;0.60;0.60;;;;;;;-147.86;93.37;48060.83;105526;1260;71933;-48
2024/04/22 09:31:05;;;;;;;0.40;0.40;;;;;;;-147.86;93.15;47991.83;105649;1260;61230;-45
2024/04/22 09:33:36;;;;;;;1.20;0.40;;;;;;;-147.86;92.69;47977.32;105628;1261;61230;-46
2024/04/22 09:36:05;;;;;;;3.00;0.50;;;;;;;-147.86;94.38;47978.11;105615;1262;75905;-47
2024/04/22 09:38:35;;;;;;;2.80;0.60;;;;;;;-147.86;94.02;47919.69;105650;1260;65216;-46
2024/04/22 09:41:14;;;;;;;3.60;0.40;;;;;;;-147.86;94.36;47893.03;105585;1257;71694;-46
2024/04/22 09:43:42;;;;;;;5.70;0.60;;;;;;;-147.86;94.30;47831.48;105627;1263;61303;-47
2024/04/22 09:46:18;;;;;;;0.40;0.40;;;;;;;-147.86;94.42;47836.97;105630;1258;61292;-45
2024/04/22 09:48:45;;;;;;;6.00;0.80;;;;;;;-147.86;90.80;47736.61;105639;1257;75365;-46
2024/04/22 09:51:14;;;;;;;1.30;0.30;;;;;;;-147.86;88.10;47893.03;105705;1256;64885;-45
2024/04/22 09:53:41;;;;;;;2.80;0.40;;;;;;;-147.86;91.95;48032.60;105624;1260;73924;-46
2024/04/22 09:56:15;;;;;;;0.30;0.30;;;;;;;-147.86;89.74;47992.22;105630;1261;61161;-47
2024/04/22 09:58:42;;;;;;;0.50;0.40;;;;;;;-147.86;86.01;48046.71;105654;1262;61237;-47
2024/04/22 10:01:10;;;;;;;0.70;0.50;;;;;;;-147.86;85.10;48120.82;105598;1256;76449;-47
2024/04/22 10:03:38;;;;;;;0.60;0.60;;;;;;;-147.86;85.66;48182.37;105648;1258;65052;-46
2024/04/22 10:06:05;;;;;;;2.70;0.70;;;;;;;-147.86;88.30;48244.32;105609;1260;71915;-47
2024/04/22 10:08:33;;;;;;;0.90;0.60;;;;;;;-147.86;88.17;48241.18;105633;1258;61196;-46
2024/04/22 10:11:07;;;;;;;3.30;0.60;;;;;;;-147.86;85.55;48259.61;105672;1260;61257;-44
2024/04/22 10:13:35;;;;;;;0.90;0.50;;;;;;;-147.86;86.86;48327.04;105636;1260;75828;-46
2024/04/22 10:16:04;;;;;;;0.40;0.40;;;;;;;-147.86;83.88;48357.24;105622;1260;65884;-48
2024/04/22 10:18:31;;;;;;;3.70;0.30;;;;;;;-147.86;80.67;48369.00;105647;1261;72566;-46
2024/04/22 10:21:02;;;;;;;2.80;0.60;;;;;;;-147.86;81.99;48415.26;105616;1260;61179;-50
2024/04/22 10:23:30;;;;;;;0.70;0.70;;;;;;;-147.86;82.15;48397.23;105636;1257;61306;-47
2024/04/22 10:25:57;;;;;;;2.80;0.50;;;;;;;-147.86;82.46;48423.89;105666;1257;74794;-47
2024/04/22 10:28:25;;;;;;;1.20;0.60;;;;;;;-147.86;85.19;48439.97;105678;1258;65394;-48
2024/04/22 10:30:56;;;;;;;0.40;0.40;;;;;;;-147.86;84.93;48447.42;105621;1257;73011;-45
2024/04/22 10:33:23;;;;;;;0.60;0.40;;;;;;;-147.86;84.04;48421.15;105619;1261;61230;-45
2024/04/22 10:35:50;;;;;;;1.60;0.60;;;;;;;-147.86;85.88;48444.67;105630;1257;61266;-47
2024/04/22 10:38:17;;;;;;;1.20;0.40;;;;;;;-147.86;83.94;48415.66;105636;1267;73646;-47
2024/04/22 10:40:44;;;;;;;2.10;0.60;;;;;;;-147.86;88.20;48455.65;105613;1261;65294;-47
2024/04/22 10:43:12;;;;;;;0.40;0.40;;;;;;;-147.86;88.26;48448.20;105634;1258;71797;-47
2024/04/22 10:45:40;;;;;;;0.50;0.50;;;;;;;-147.86;89.83;48475.65;105609;1260;61097;-47
2024/04/22 10:48:07;;;;;;;1.20;0.50;;;;;;;-147.86;90.74;48495.65;105653;1260;61247;-47
2024/04/22 10:50:47;;;;;;;1.10;0.50;;;;;;;-147.86;88.86;48465.85;105610;1258;75483;-47
2024/04/22 10:53:15;;;;;;;13.70;1.30;;;;;;;-147.86;85.90;48402.72;105661;1263;65888;-45
2024/04/22 10:55:43;;;;;;;31.30;3.10;;;;;;;-147.86;87.15;48417.23;105634;1258;74151;-46
2024/04/22 10:58:10;;;;;;;4.10;0.80;;;;;;;-147.86;89.37;48466.63;105590;1258;61251;-46
2024/04/22 11:00:38;;;;;;;16.70;1.70;;;;;;;-147.86;89.99;48463.10;105593;1256;61307;-46
2024/04/22 11:03:07;;;;;;;10.10;1.30;;;;;;;-147.86;89.76;48453.30;105656;1257;75765;-47
2024/04/22 11:05:34;;;;;;;34.50;2.90;;;;;;;-147.86;88.93;48414.88;105606;1260;67194;-45
2024/04/22 11:08:04;;;;;;;0.90;0.50;;;;;;;-147.86;91.30;48487.02;105638;1267;74085;-45